| time (UTC) | temp C | wind direction | speed KPH | gust KPH | rain 1hr cm | rain 24hr cm | rain mn cm | humidity % | barometer mb |
| 20260503014021 | 19 | 270 | 8.0 | 11.3 | 0.00 | 0.00 | 0.00 | 34 | 922.6 |
| 20260503013031 | 20 | 260 | 8.0 | 9.7 | 0.00 | 0.00 | 0.00 | 32 | 922.8 |
| 20260503012053 | -17 | 0.0 | 0.0 | 0.00 | 0.00 | 0.00 | 922.8 | ||
| 20260503011030 | -17 | 0.0 | 0.0 | 0.00 | 0.00 | 0.00 | 922.9 | ||
| 20260503010032 | -17 | 0.0 | 0.0 | 0.00 | 0.00 | 0.00 | 923.0 | ||
| 20260503005015 | -17 | 0.0 | 0.0 | 0.00 | 0.00 | 0.00 | 923.1 | ||
| 20260503004017 | -17 | 0.0 | 0.0 | 0.00 | 0.00 | 0.00 | 923.3 | ||
| 20260503003020 | -17 | 0.0 | 0.0 | 0.00 | 0.00 | 0.00 | 923.6 | ||
| 20260503002022 | 20 | 265 | 11.3 | 14.5 | 0.00 | 0.00 | 0.00 | 31 | 923.6 |
| 20260503001044 | 20 | 271 | 11.3 | 16.1 | 0.00 | 0.00 | 0.00 | 31 | 923.6 |
| 20260503000046 | 20 | 280 | 11.3 | 16.1 | 0.00 | 0.00 | 0.00 | 30 | 923.7 |
| 20260502235023 | 19 | 277 | 14.5 | 17.7 | 0.00 | 0.00 | 0.00 | 32 | 923.9 |
| 20260502234101 | 18 | 260 | 12.9 | 14.5 | 0.00 | 0.00 | 0.00 | 32 | 924.1 |
| 20260502233038 | 19 | 272 | 14.5 | 17.7 | 0.00 | 0.00 | 0.00 | 32 | 924.3 |
| 20260502232044 | 19 | 291 | 12.9 | 17.7 | 0.00 | 0.00 | 0.00 | 31 | 924.3 |
| 20260502231026 | 19 | 295 | 14.5 | 17.7 | 0.00 | 0.00 | 0.00 | 31 | 924.6 |
| 20260502230030 | 20 | 270 | 11.3 | 14.5 | 0.00 | 0.00 | 0.00 | 31 | 924.6 |
| 20260502225031 | 20 | 281 | 9.7 | 14.5 | 0.00 | 0.00 | 0.00 | 29 | 924.7 |
| 20260502224015 | 20 | 300 | 14.5 | 22.5 | 0.00 | 0.00 | 0.00 | 28 | 925.0 |
| 20260502223051 | 20 | 298 | 11.3 | 19.3 | 0.00 | 0.00 | 0.00 | 28 | 925.1 |
| 20260502222033 | 20 | 300 | 9.7 | 14.5 | 0.00 | 0.00 | 0.00 | 29 | 925.3 |
| 20260502221017 | 20 | 277 | 14.5 | 19.3 | 0.00 | 0.00 | 0.00 | 30 | 925.3 |
| 20260502220019 | 20 | 272 | 11.3 | 14.5 | 0.00 | 0.00 | 0.00 | 29 | 925.5 |
| 20260502215023 | 20 | 295 | 11.3 | 16.1 | 0.00 | 0.00 | 0.00 | 29 | 925.6 |
| 20260502214039 | 20 | 304 | 16.1 | 27.4 | 0.00 | 0.00 | 0.00 | 29 | 925.6 |
| 20260502213021 | 20 | 315 | 12.9 | 24.1 | 0.00 | 0.00 | 0.00 | 30 | 925.8 |
| 20260502212024 | 20 | 293 | 16.1 | 24.1 | 0.00 | 0.00 | 0.00 | 29 | 925.8 |
| 20260502211026 | 20 | 309 | 12.9 | 17.7 | 0.00 | 0.00 | 0.00 | 30 | 926.0 |
| 20260502210046 | 20 | 292 | 11.3 | 17.7 | 0.00 | 0.00 | 0.00 | 28 | 926.1 |
| 20260502205019 | 20 | 314 | 12.9 | 19.3 | 0.00 | 0.00 | 0.00 | 29 | 926.2 |
| 20260502204016 | 20 | 295 | 14.5 | 17.7 | 0.00 | 0.00 | 0.00 | 28 | 926.3 |
| 20260502203020 | 20 | 310 | 14.5 | 20.9 | 0.00 | 0.00 | 0.00 | 29 | 926.5 |
| 20260502202020 | 20 | 317 | 17.7 | 25.7 | 0.00 | 0.00 | 0.00 | 28 | 926.5 |
| 20260502201018 | 19 | 313 | 12.9 | 22.5 | 0.00 | 0.00 | 0.00 | 28 | 926.6 |
| 20260502200020 | 19 | 288 | 12.9 | 19.3 | 0.00 | 0.00 | 0.00 | 29 | 926.8 |
| 20260502195022 | 19 | 287 | 11.3 | 17.7 | 0.00 | 0.00 | 0.00 | 29 | 926.9 |
| 20260502194024 | 18 | 327 | 16.1 | 24.1 | 0.00 | 0.00 | 0.00 | 29 | 927.0 |
| 20260502193027 | 19 | 287 | 12.9 | 17.7 | 0.00 | 0.00 | 0.00 | 31 | 927.1 |
| 20260502192029 | 18 | 312 | 12.9 | 17.7 | 0.00 | 0.00 | 0.00 | 31 | 927.3 |
| 20260502191032 | 18 | 296 | 8.0 | 16.1 | 0.00 | 0.00 | 0.00 | 31 | 927.5 |
| 20260502190015 | 18 | 306 | 14.5 | 17.7 | 0.00 | 0.00 | 0.00 | 31 | 927.6 |
| 20260502185017 | 18 | 321 | 14.5 | 17.7 | 0.00 | 0.00 | 0.00 | 32 | 927.6 |
| 20260502184021 | 18 | 321 | 16.1 | 22.5 | 0.00 | 0.00 | 0.00 | 31 | 927.6 |
| 20260502183022 | 18 | 320 | 9.7 | 12.9 | 0.00 | 0.00 | 0.00 | 32 | 927.8 |
| 20260502182044 | 18 | 310 | 9.7 | 12.9 | 0.00 | 0.00 | 0.00 | 31 | 928.0 |
| 20260502181020 | 17 | 324 | 12.9 | 19.3 | 0.00 | 0.00 | 0.00 | 31 | 928.1 |
| 20260502164020 | 16 | 329 | 9.7 | 12.9 | 0.00 | 0.00 | 0.00 | 38 | 928.6 |
| 20260502163022 | 16 | 306 | 12.9 | 16.1 | 0.00 | 0.00 | 0.00 | 38 | 928.8 |
| 20260502162024 | 15 | 340 | 9.7 | 11.3 | 0.00 | 0.00 | 0.00 | 40 | 928.8 |
| 20260502161026 | 15 | 337 | 8.0 | 14.5 | 0.00 | 0.00 | 0.00 | 41 | 928.8 |
| 20260502152018 | 12 | 309 | 11.3 | 14.5 | 0.00 | 0.00 | 0.00 | 51 | 929.1 |
| 20260502151021 | 12 | 322 | 9.7 | 12.9 | 0.00 | 0.00 | 0.00 | 52 | 929.1 |
| 20260502123037 | 5 | 299 | 8.0 | 11.3 | 0.00 | 0.00 | 0.00 | 81 | 928.3 |
| 20260502122051 | 5 | 300 | 8.0 | 12.9 | 0.00 | 0.00 | 0.00 | 82 | 928.3 |
| 20260502121037 | 5 | 310 | 11.3 | 16.1 | 0.00 | 0.00 | 0.00 | 83 | 928.3 |
| 20260502115027 | 5 | 318 | 9.7 | 11.3 | 0.00 | 0.00 | 0.00 | 84 | 928.2 |
| 20260502114024 | 5 | 315 | 9.7 | 11.3 | 0.00 | 0.00 | 0.00 | 83 | 928.3 |
| 20260502113026 | 5 | 311 | 11.3 | 14.5 | 0.00 | 0.00 | 0.00 | 83 | 928.3 |
| 20260502112109 | 5 | 304 | 11.3 | 14.5 | 0.00 | 0.00 | 0.00 | 83 | 928.3 |
| 20260502111031 | 5 | 315 | 12.9 | 16.1 | 0.00 | 0.00 | 0.00 | 83 | 928.3 |
| 20260502110028 | 5 | 315 | 9.7 | 11.3 | 0.00 | 0.00 | 0.00 | 83 | 928.1 |
| 20260502105030 | 5 | 317 | 9.7 | 11.3 | 0.00 | 0.00 | 0.00 | 83 | 928.1 |
| 20260502104052 | 5 | 310 | 8.0 | 11.3 | 0.00 | 0.00 | 0.00 | 83 | 928.1 |
| 20260502103017 | 5 | 312 | 8.0 | 9.7 | 0.00 | 0.00 | 0.00 | 83 | 928.1 |
| 20260502102039 | 5 | 299 | 8.0 | 11.3 | 0.00 | 0.00 | 0.00 | 83 | 928.0 |
| 20260502101021 | 6 | 307 | 9.7 | 12.9 | 0.00 | 0.00 | 0.00 | 82 | 927.8 |
| 20260502091030 | 6 | 307 | 11.3 | 12.9 | 0.00 | 0.00 | 0.00 | 81 | 927.3 |
| 20260502071041 | 10 | 307 | 9.7 | 12.9 | 0.00 | 0.00 | 0.00 | 72 | 926.8 |
| 20260502070019 | 10 | 315 | 9.7 | 12.9 | 0.00 | 0.00 | 0.00 | 70 | 926.7 |
| 20260502065032 | 10 | 312 | 9.7 | 14.5 | 0.00 | 0.00 | 0.00 | 68 | 926.6 |
| 20260502064017 | 11 | 323 | 9.7 | 11.3 | 0.00 | 0.00 | 0.00 | 65 | 926.6 |
| 20260502063032 | 11 | 319 | 9.7 | 12.9 | 0.00 | 0.00 | 0.00 | 64 | 926.5 |
| 20260502062015 | 11 | 320 | 9.7 | 12.9 | 0.00 | 0.00 | 0.00 | 63 | 926.5 |
| 20260502061031 | 11 | 315 | 8.0 | 11.3 | 0.00 | 0.00 | 0.00 | 62 | 926.6 |
| 20260502060054 | 11 | 306 | 8.0 | 9.7 | 0.00 | 0.00 | 0.00 | 62 | 926.6 |
| 20260502055017 | 12 | 313 | 9.7 | 11.3 | 0.00 | 0.00 | 0.00 | 61 | 926.6 |
| 20260502054020 | 12 | 305 | 11.3 | 12.9 | 0.00 | 0.00 | 0.00 | 60 | 926.6 |
| 20260502053016 | 12 | 317 | 11.3 | 14.5 | 0.00 | 0.00 | 0.00 | 60 | 926.1 |
| 20260502052038 | 12 | 326 | 8.0 | 11.3 | 0.00 | 0.00 | 0.00 | 60 | 926.1 |
| 20260502051101 | 11 | 309 | 9.7 | 11.3 | 0.00 | 0.00 | 0.00 | 61 | 926.3 |
| 20260502050019 | 11 | 312 | 6.4 | 8.0 | 0.00 | 0.00 | 0.00 | 61 | 926.3 |
| 20260502045020 | 12 | 319 | 9.7 | 12.9 | 0.00 | 0.00 | 0.00 | 60 | 926.3 |
| 20260502044022 | 12 | 315 | 9.7 | 11.3 | 0.00 | 0.00 | 0.00 | 60 | 926.3 |
| 20260502043025 | 12 | 320 | 8.0 | 12.9 | 0.00 | 0.00 | 0.00 | 59 | 926.1 |
| 20260502042021 | 12 | 318 | 9.7 | 12.9 | 0.00 | 0.00 | 0.00 | 59 | 926.0 |
| 20260502041018 | 12 | 305 | 9.7 | 11.3 | 0.00 | 0.00 | 0.00 | 59 | 926.0 |
| 20260502040027 | 12 | 315 | 8.0 | 9.7 | 0.00 | 0.00 | 0.00 | 59 | 925.9 |
| 20260502035023 | 12 | 313 | 6.4 | 8.0 | 0.00 | 0.00 | 0.00 | 59 | 925.8 |
| 20260502034020 | 12 | 312 | 6.4 | 9.7 | 0.00 | 0.00 | 0.00 | 59 | 925.8 |
| 20260502033022 | 13 | 313 | 6.4 | 8.0 | 0.00 | 0.00 | 0.00 | 58 | 925.8 |
| 20260502032033 | 13 | 311 | 6.4 | 9.7 | 0.00 | 0.00 | 0.00 | 56 | 925.6 |
| 20260502031016 | 14 | 328 | 6.4 | 9.7 | 0.00 | 0.00 | 0.00 | 54 | 925.6 |
| 20260502030018 | 14 | 308 | 9.7 | 16.1 | 0.00 | 0.00 | 0.00 | 52 | 925.5 |
| 20260502025021 | 15 | 356 | 8.0 | 16.1 | 0.00 | 0.00 | 0.00 | 51 | 925.4 |
| 20260502024023 | 15 | 346 | 6.4 | 9.7 | 0.00 | 0.00 | 0.00 | 49 | 925.3 |
| 20260502023026 | 15 | 359 | 8.0 | 14.5 | 0.00 | 0.00 | 0.00 | 49 | 925.0 |
| 20260502022028 | 15 | 352 | 11.3 | 16.1 | 0.00 | 0.00 | 0.00 | 49 | 924.8 |
| 20260502021051 | 15 | 333 | 9.7 | 12.9 | 0.00 | 0.00 | 0.00 | 49 | 924.8 |
| 20260502020032 | 16 | 346 | 9.7 | 12.9 | 0.00 | 0.00 | 0.00 | 47 | 924.8 |
| 20260502015017 | 16 | 355 | 9.7 | 12.9 | 0.00 | 0.00 | 0.00 | 46 | 924.7 |